Time;durP1;ratioP1;P1;durP2;ratioP2;P2;SDS_P1;SDS_P2;PMS_P1;PMS_P2;Temp;Humidity;BMP_temperature;BMP_pressure;BME280_temperature;BME280_humidity;BME280_pressure;Samples;Min_cycle;Max_cycle;Signal;HPM_P1;HPM_P2
2022/06/21 00:02:11;;;;;;;1.20;1.00;;;;;;;;;;5041641;28;20198;-83
2022/06/21 00:04:38;;;;;;;1.20;1.10;;;;;;;;;;5042643;28;20225;-82
2022/06/21 00:07:06;;;;;;;1.45;1.15;;;;;;;;;;5041401;28;20224;-82
2022/06/21 00:09:34;;;;;;;1.40;1.08;;;;;;;;;;5040358;28;20254;-82
2022/06/21 00:12:02;;;;;;;2.28;1.10;;;;;;;;;;5042155;28;20210;-82
2022/06/21 00:14:31;;;;;;;1.20;1.10;;;;;;;;;;5041662;28;20210;-83
2022/06/21 00:16:59;;;;;;;2.45;1.33;;;;;;;;;;5041447;28;20682;-83
2022/06/21 00:19:27;;;;;;;1.85;1.10;;;;;;;;;;5041082;28;20229;-82
2022/06/21 00:21:54;;;;;;;1.02;1.00;;;;;;;;;;5041418;28;20263;-82
2022/06/21 00:24:22;;;;;;;1.27;1.17;;;;;;;;;;5041174;28;20209;-82
2022/06/21 00:26:49;;;;;;;1.23;1.02;;;;;;;;;;5036503;28;20202;-82
2022/06/21 00:29:18;;;;;;;1.67;1.10;;;;;;;;;;5055094;23;20225;-86
2022/06/21 00:31:47;;;;;;;1.35;1.25;;;;;;;;;;5027365;28;20308;-84
2022/06/21 00:34:15;;;;;;;1.00;0.90;;;;;;;;;;5031447;28;20288;-84
2022/06/21 00:36:43;;;;;;;1.67;1.20;;;;;;;;;;5025597;28;20309;-84
2022/06/21 00:39:11;;;;;;;1.52;1.00;;;;;;;;;;5025089;28;20194;-84
2022/06/21 00:41:41;;;;;;;1.45;0.82;;;;;;;;;;5031640;28;20263;-84
2022/06/21 00:44:11;;;;;;;1.95;1.20;;;;;;;;;;5032168;28;20229;-84
2022/06/21 00:46:43;;;;;;;1.42;1.20;;;;;;;;;;5030844;28;20648;-84
2022/06/21 00:49:14;;;;;;;1.30;1.08;;;;;;;;;;5031380;28;20267;-85
2022/06/21 00:51:42;;;;;;;1.20;1.10;;;;;;;;;;5028618;28;20205;-84
2022/06/21 00:54:13;;;;;;;1.27;1.15;;;;;;;;;;5031501;28;20201;-85
2022/06/21 00:56:43;;;;;;;1.60;1.02;;;;;;;;;;5031512;28;20233;-85
2022/06/21 00:59:17;;;;;;;0.90;0.90;;;;;;;;;;5031186;28;20205;-84
2022/06/21 01:01:47;;;;;;;0.95;0.88;;;;;;;;;;5032422;28;20225;-84
2022/06/21 01:04:16;;;;;;;2.15;1.50;;;;;;;;;;5035389;28;20233;-85
2022/06/21 01:06:47;;;;;;;1.27;1.17;;;;;;;;;;5035060;28;20201;-84
2022/06/21 01:09:15;;;;;;;1.98;1.25;;;;;;;;;;5034857;28;20208;-85
2022/06/21 01:11:44;;;;;;;1.33;1.23;;;;;;;;;;5035239;28;20293;-85
2022/06/21 01:14:11;;;;;;;1.30;1.20;;;;;;;;;;5026251;28;20233;-84
2022/06/21 01:16:40;;;;;;;0.90;0.90;;;;;;;;;;5030350;28;20253;-84
2022/06/21 01:19:12;;;;;;;1.42;1.20;;;;;;;;;;5033305;28;20376;-84
2022/06/21 01:21:41;;;;;;;1.30;1.10;;;;;;;;;;5035601;28;20213;-84
2022/06/21 01:24:13;;;;;;;2.03;1.50;;;;;;;;;;5034692;28;20698;-84
2022/06/21 01:26:44;;;;;;;1.98;1.20;;;;;;;;;;5034793;28;20294;-84
2022/06/21 01:29:12;;;;;;;2.10;1.50;;;;;;;;;;5033895;28;20206;-84
2022/06/21 01:31:40;;;;;;;1.45;1.23;;;;;;;;;;5034618;28;20226;-84
2022/06/21 01:34:08;;;;;;;2.42;1.40;;;;;;;;;;5034539;28;20206;-84
2022/06/21 01:36:37;;;;;;;1.77;1.40;;;;;;;;;;5034972;28;20226;-84
2022/06/21 01:39:07;;;;;;;1.92;1.60;;;;;;;;;;5034621;28;20213;-84
2022/06/21 01:41:35;;;;;;;1.50;1.40;;;;;;;;;;5034923;28;20217;-85
2022/06/21 01:44:05;;;;;;;1.42;1.33;;;;;;;;;;5034684;28;20244;-85
2022/06/21 01:46:33;;;;;;;2.25;1.58;;;;;;;;;;5034453;28;20245;-84
2022/06/21 01:49:02;;;;;;;2.22;1.50;;;;;;;;;;5034489;28;20214;-85
2022/06/21 01:51:32;;;;;;;1.45;1.20;;;;;;;;;;5033144;28;20234;-85
2022/06/21 01:54:00;;;;;;;1.55;1.30;;;;;;;;;;5034615;28;20252;-85
2022/06/21 01:56:30;;;;;;;2.13;1.23;;;;;;;;;;5034491;28;20205;-85
2022/06/21 01:58:59;;;;;;;2.45;1.48;;;;;;;;;;5034148;28;20216;-85
2022/06/21 02:01:32;;;;;;;2.55;1.55;;;;;;;;;;5034373;28;20317;-85
2022/06/21 02:04:01;;;;;;;1.17;1.05;;;;;;;;;;5034564;28;20215;-84
2022/06/21 02:06:31;;;;;;;1.40;1.30;;;;;;;;;;5033362;28;20286;-84
2022/06/21 02:09:00;;;;;;;1.85;1.23;;;;;;;;;;5032818;28;20236;-84
2022/06/21 02:11:30;;;;;;;1.73;1.30;;;;;;;;;;5032885;28;20345;-85
2022/06/21 02:16:48;;;;;;;1.55;1.08;;;;;;;;;;5030523;28;20221;-84
2022/06/21 02:19:20;;;;;;;2.25;1.35;;;;;;;;;;5033037;28;20296;-85
2022/06/21 02:21:47;;;;;;;1.23;1.13;;;;;;;;;;5034235;28;20285;-85
2022/06/21 02:24:16;;;;;;;2.20;1.25;;;;;;;;;;5033713;28;20248;-84
2022/06/21 02:26:43;;;;;;;1.23;1.10;;;;;;;;;;5034267;28;20216;-84
2022/06/21 02:29:14;;;;;;;1.52;1.30;;;;;;;;;;5033494;28;20249;-84
2022/06/21 02:31:41;;;;;;;1.42;1.10;;;;;;;;;;5034030;28;20205;-85
2022/06/21 02:34:16;;;;;;;1.35;1.25;;;;;;;;;;5033531;28;20300;-84
2022/06/21 02:36:46;;;;;;;1.02;1.02;;;;;;;;;;5033731;28;20293;-84
2022/06/21 02:39:17;;;;;;;1.13;1.10;;;;;;;;;;5033435;28;20249;-85
2022/06/21 02:41:47;;;;;;;1.20;1.00;;;;;;;;;;5033768;28;20327;-85
2022/06/21 02:44:17;;;;;;;1.50;1.35;;;;;;;;;;5033472;28;20225;-85
2022/06/21 02:46:47;;;;;;;1.30;1.20;;;;;;;;;;5033367;28;20233;-84
2022/06/21 02:49:18;;;;;;;1.45;1.10;;;;;;;;;;5033304;28;20205;-84
2022/06/21 02:51:48;;;;;;;1.23;1.13;;;;;;;;;;5033292;28;20572;-85
2022/06/21 02:54:17;;;;;;;1.60;1.20;;;;;;;;;;5024825;28;20200;-85
2022/06/21 02:56:46;;;;;;;1.35;1.10;;;;;;;;;;5024274;28;20226;-84
2022/06/21 02:59:14;;;;;;;1.20;1.10;;;;;;;;;;5033720;28;20201;-84
2022/06/21 03:01:43;;;;;;;1.10;1.00;;;;;;;;;;5033065;28;20260;-85
2022/06/21 03:04:14;;;;;;;1.30;1.20;;;;;;;;;;5033040;28;20198;-85
2022/06/21 03:06:43;;;;;;;1.10;1.00;;;;;;;;;;5033608;28;20296;-85
2022/06/21 03:09:14;;;;;;;1.05;1.00;;;;;;;;;;5033207;28;20236;-85
2022/06/21 03:11:42;;;;;;;2.00;1.30;;;;;;;;;;5031191;28;20261;-84
2022/06/21 03:14:13;;;;;;;1.27;1.17;;;;;;;;;;5027644;28;20240;-84
2022/06/21 03:16:40;;;;;;;1.20;1.10;;;;;;;;;;5029246;28;20233;-85
2022/06/21 03:19:14;;;;;;;1.20;1.10;;;;;;;;;;5027747;28;20318;-85
2022/06/21 03:21:42;;;;;;;1.95;1.10;;;;;;;;;;5031904;28;20293;-84
2022/06/21 03:24:14;;;;;;;1.38;1.05;;;;;;;;;;5030395;28;20229;-85
2022/06/21 03:26:43;;;;;;;1.15;1.05;;;;;;;;;;5031693;28;20296;-85
2022/06/21 03:29:10;;;;;;;1.45;1.23;;;;;;;;;;5028766;28;20198;-85
2022/06/21 03:31:39;;;;;;;1.40;1.20;;;;;;;;;;5029139;28;20296;-85
2022/06/21 03:34:08;;;;;;;1.45;1.00;;;;;;;;;;5026898;28;20238;-84
2022/06/21 03:36:35;;;;;;;1.40;1.00;;;;;;;;;;5029396;28;20210;-85
2022/06/21 03:39:04;;;;;;;1.55;1.10;;;;;;;;;;5032164;28;20289;-85
2022/06/21 03:41:44;;;;;;;1.10;1.00;;;;;;;;;;5032850;28;20216;-85
2022/06/21 03:44:15;;;;;;;1.10;1.00;;;;;;;;;;5032456;28;20758;-85
2022/06/21 03:46:46;;;;;;;1.10;1.00;;;;;;;;;;5033764;28;20234;-85
2022/06/21 03:49:17;;;;;;;1.15;1.05;;;;;;;;;;5031794;28;20197;-84
2022/06/21 03:51:47;;;;;;;1.10;1.00;;;;;;;;;;5033476;28;20644;-85
2022/06/21 03:54:16;;;;;;;0.82;0.82;;;;;;;;;;5032695;28;20226;-84
2022/06/21 03:56:49;;;;;;;1.27;1.08;;;;;;;;;;5033671;28;20233;-84
2022/06/21 03:59:21;;;;;;;1.00;1.00;;;;;;;;;;5030342;28;20317;-85
2022/06/21 04:01:52;;;;;;;1.08;1.00;;;;;;;;;;5032753;28;20259;-85
2022/06/21 04:04:25;;;;;;;1.08;0.98;;;;;;;;;;5031868;28;20229;-85
2022/06/21 04:06:55;;;;;;;1.00;1.00;;;;;;;;;;5030694;28;20301;-85
2022/06/21 04:09:27;;;;;;;1.02;0.98;;;;;;;;;;5025298;28;20198;-85
2022/06/21 04:11:59;;;;;;;1.00;0.90;;;;;;;;;;5027862;28;20230;-84
2022/06/21 04:14:31;;;;;;;1.25;1.15;;;;;;;;;;5026395;28;20217;-84
2022/06/21 04:17:00;;;;;;;1.63;1.10;;;;;;;;;;5032371;28;20214;-84
2022/06/21 04:19:34;;;;;;;0.90;0.90;;;;;;;;;;5031305;28;20249;-84
2022/06/21 04:22:02;;;;;;;1.00;1.00;;;;;;;;;;5022361;28;20194;-85
2022/06/21 04:24:34;;;;;;;1.63;1.33;;;;;;;;;;5030672;28;20324;-85
2022/06/21 04:27:05;;;;;;;3.03;1.40;;;;;;;;;;5029177;28;20202;-84
2022/06/21 04:29:34;;;;;;;1.17;1.08;;;;;;;;;;5027335;28;20233;-83
2022/06/21 04:32:13;;;;;;;2.25;1.23;;;;;;;;;;5025347;28;20225;-87
2022/06/21 04:34:43;;;;;;;2.13;1.50;;;;;;;;;;5030814;28;20205;-85
2022/06/21 04:37:12;;;;;;;6.38;2.33;;;;;;;;;;5024998;28;20225;-87
2022/06/21 04:39:42;;;;;;;31.30;7.60;;;;;;;;;;5028905;28;20229;-86
2022/06/21 04:42:13;;;;;;;46.25;10.52;;;;;;;;;;5024068;28;20256;-87
2022/06/21 04:44:43;;;;;;;31.45;9.32;;;;;;;;;;5026497;28;20238;-85
2022/06/21 04:47:14;;;;;;;23.92;5.50;;;;;;;;;;5028468;28;20216;-86
2022/06/21 04:49:43;;;;;;;5.13;2.20;;;;;;;;;;5031203;28;20235;-87
2022/06/21 04:52:13;;;;;;;2.50;1.80;;;;;;;;;;5031614;28;20807;-85
2022/06/21 04:54:41;;;;;;;2.55;1.63;;;;;;;;;;5027470;28;20202;-87
2022/06/21 04:57:10;;;;;;;2.45;1.48;;;;;;;;;;5031162;28;20202;-85
2022/06/21 04:59:39;;;;;;;2.90;1.70;;;;;;;;;;5031467;28;20316;-86
2022/06/21 05:02:11;;;;;;;3.75;1.80;;;;;;;;;;5031217;28;20206;-85
2022/06/21 05:04:40;;;;;;;2.40;1.75;;;;;;;;;;5029211;28;20260;-86
2022/06/21 05:07:11;;;;;;;2.10;1.63;;;;;;;;;;5028666;28;20297;-87
2022/06/21 05:09:38;;;;;;;3.42;1.73;;;;;;;;;;5031812;28;20225;-86
2022/06/21 05:12:08;;;;;;;1.67;1.40;;;;;;;;;;5031907;28;20213;-86
2022/06/21 05:14:37;;;;;;;1.88;1.40;;;;;;;;;;5031861;28;20202;-86
2022/06/21 05:17:08;;;;;;;1.85;1.58;;;;;;;;;;5031251;28;20267;-85
2022/06/21 05:19:37;;;;;;;2.05;1.65;;;;;;;;;;5023978;28;20222;-85
2022/06/21 05:22:07;;;;;;;3.25;2.20;;;;;;;;;;5019266;28;20229;-90
2022/06/21 05:24:34;;;;;;;2.28;1.73;;;;;;;;;;5029283;28;20210;-87
2022/06/21 05:27:05;;;;;;;3.38;1.50;;;;;;;;;;5024249;28;20284;-85
2022/06/21 05:29:37;;;;;;;3.63;1.50;;;;;;;;;;5021744;28;20222;-85
2022/06/21 05:32:05;;;;;;;2.28;1.60;;;;;;;;;;5026482;28;20226;-85
2022/06/21 05:34:36;;;;;;;2.10;1.70;;;;;;;;;;5029867;28;20198;-85
2022/06/21 05:37:07;;;;;;;2.10;1.50;;;;;;;;;;5023397;28;20202;-85
2022/06/21 05:39:37;;;;;;;3.17;1.58;;;;;;;;;;5025096;28;20277;-85
2022/06/21 05:42:05;;;;;;;1.40;1.30;;;;;;;;;;5026391;28;20206;-85
2022/06/21 05:44:35;;;;;;;2.58;1.60;;;;;;;;;;5032693;28;20680;-85
2022/06/21 05:47:05;;;;;;;2.60;1.63;;;;;;;;;;5043548;28;20190;-85
2022/06/21 05:49:36;;;;;;;3.08;1.80;;;;;;;;;;5041061;28;20222;-85
2022/06/21 05:52:06;;;;;;;1.90;1.45;;;;;;;;;;5027678;28;20277;-85
2022/06/21 05:54:35;;;;;;;3.03;1.77;;;;;;;;;;5030818;28;20202;-85
2022/06/21 05:57:04;;;;;;;3.35;1.67;;;;;;;;;;5023532;28;20202;-85
2022/06/21 05:59:31;;;;;;;2.15;1.70;;;;;;;;;;5024935;28;20792;-85
2022/06/21 06:02:01;;;;;;;3.40;1.77;;;;;;;;;;5023888;28;20233;-89
2022/06/21 06:04:32;;;;;;;3.53;1.70;;;;;;;;;;5029082;28;20209;-89
2022/06/21 06:07:02;;;;;;;3.53;1.90;;;;;;;;;;5025966;28;20213;-89
2022/06/21 06:09:30;;;;;;;2.42;1.60;;;;;;;;;;5028923;28;20249;-85
2022/06/21 06:12:03;;;;;;;4.85;1.80;;;;;;;;;;5035748;28;20271;-85
2022/06/21 06:17:08;;;;;;;2.58;1.80;;;;;;;;;;5477414;23;20222;-85
2022/06/21 06:22:44;;;;;;;2.42;1.60;;;;;;;;;;4967366;28;20187;-87
2022/06/21 06:25:18;;;;;;;4.15;1.83;;;;;;;;;;5038056;28;20220;-87
2022/06/21 06:27:52;;;;;;;3.42;1.98;;;;;;;;;;5016002;28;20218;-88
2022/06/21 06:30:39;;;;;;;2.63;1.67;;;;;;;;;;5067033;22;20236;-89
2022/06/21 06:36:08;;;;;;;1.60;1.50;;;;;;;;;;5016060;28;20207;-88
2022/06/21 06:38:45;;;;;;;4.55;1.60;;;;;;;;;;5031616;28;20233;-87
2022/06/21 06:41:19;;;;;;;1.92;1.70;;;;;;;;;;5007771;28;20225;-87
2022/06/21 06:43:50;;;;;;;3.83;1.55;;;;;;;;;;5008490;28;20301;-87
2022/06/21 06:46:27;;;;;;;2.20;1.58;;;;;;;;;;5003078;28;20203;-88
2022/06/21 06:49:00;;;;;;;2.50;1.75;;;;;;;;;;5004982;28;20209;-87
2022/06/21 06:51:46;;;;;;;1.92;1.67;;;;;;;;;;5013977;28;20280;-87
2022/06/21 06:54:23;;;;;;;2.63;1.70;;;;;;;;;;5000100;28;20207;-86
2022/06/21 06:57:26;;;;;;;;;;;;;;;;;;;;;
2022/06/21 06:59:59;;;;;;;2.60;1.52;;;;;;;;;;5003591;28;20230;-88
2022/06/21 07:02:37;;;;;;;2.38;1.58;;;;;;;;;;4999240;28;20262;-90
2022/06/21 07:05:14;;;;;;;3.45;1.65;;;;;;;;;;5011288;28;20220;-88
2022/06/21 07:07:47;;;;;;;2.92;1.73;;;;;;;;;;5011116;28;20207;-87
2022/06/21 07:10:28;;;;;;;2.53;1.70;;;;;;;;;;5008330;28;20258;-87
2022/06/21 07:21:26;;;;;;;2.92;1.88;;;;;;;;;;5015756;22;20227;-88
2022/06/21 07:23:59;;;;;;;2.47;2.00;;;;;;;;;;4992209;28;20203;-86
2022/06/21 07:26:32;;;;;;;1.85;1.65;;;;;;;;;;4994571;28;20207;-85
2022/06/21 07:29:06;;;;;;;2.38;1.55;;;;;;;;;;4995117;28;20391;-88
2022/06/21 07:31:36;;;;;;;2.72;1.95;;;;;;;;;;4989605;28;20261;-86
2022/06/21 07:34:05;;;;;;;1.80;1.70;;;;;;;;;;4993519;28;20294;-88
2022/06/21 07:36:37;;;;;;;2.72;1.83;;;;;;;;;;4978876;28;20736;-88
2022/06/21 07:39:08;;;;;;;1.77;1.67;;;;;;;;;;4986173;28;20227;-87
2022/06/21 07:41:41;;;;;;;2.30;1.65;;;;;;;;;;4978522;28;20220;-89
2022/06/21 07:44:15;;;;;;;2.33;1.70;;;;;;;;;;4982009;28;20222;-87
2022/06/21 07:46:46;;;;;;;2.15;1.60;;;;;;;;;;4988317;28;20215;-88
2022/06/21 07:49:25;;;;;;;2.42;1.50;;;;;;;;;;4970952;28;20578;-87
2022/06/21 07:52:06;;;;;;;2.72;2.00;;;;;;;;;;4976299;28;20235;-87
2022/06/21 07:54:51;;;;;;;3.78;1.90;;;;;;;;;;4991709;28;20203;-89
2022/06/21 08:14:07;;;;;;;3.30;1.83;;;;;;;;;;5016736;28;20198;-89
2022/06/21 08:16:44;;;;;;;2.38;1.73;;;;;;;;;;5013985;28;20265;-88
2022/06/21 08:19:16;;;;;;;1.77;1.63;;;;;;;;;;5014227;28;20222;-85
2022/06/21 08:22:01;;;;;;;3.40;1.80;;;;;;;;;;5133165;22;20611;-89
2022/06/21 08:27:27;;;;;;;3.15;1.60;;;;;;;;;;4974726;28;20260;-87
2022/06/21 08:30:01;;;;;;;1.75;1.60;;;;;;;;;;5015345;28;20229;-88
2022/06/21 08:32:36;;;;;;;1.73;1.42;;;;;;;;;;5016086;28;20210;-88
2022/06/21 08:35:14;;;;;;;2.03;1.65;;;;;;;;;;5014777;28;20210;-89
2022/06/21 08:37:52;;;;;;;1.92;1.35;;;;;;;;;;5007552;28;20218;-89
2022/06/21 08:40:41;;;;;;;2.22;1.65;;;;;;;;;;5013921;28;20233;-87
2022/06/21 08:43:36;;;;;;;2.80;1.60;;;;;;;;;;5014036;28;20301;-88
2022/06/21 08:46:24;;;;;;;2.00;1.52;;;;;;;;;;5016158;28;20678;-88
2022/06/21 08:49:18;;;;;;;2.83;1.70;;;;;;;;;;5010999;28;20214;-88
2022/06/21 08:51:50;;;;;;;2.00;1.70;;;;;;;;;;5013400;28;20313;-87
2022/06/21 08:54:25;;;;;;;2.33;1.58;;;;;;;;;;5013034;28;20214;-88
2022/06/21 08:56:57;;;;;;;1.65;1.50;;;;;;;;;;5012847;28;20238;-88
2022/06/21 08:59:33;;;;;;;2.05;1.60;;;;;;;;;;5013187;28;20284;-88
2022/06/21 09:02:07;;;;;;;1.75;1.65;;;;;;;;;;5013064;28;20257;-88
2022/06/21 09:04:42;;;;;;;3.20;1.80;;;;;;;;;;5013556;28;20197;-87
2022/06/21 09:07:27;;;;;;;2.60;1.88;;;;;;;;;;5013365;28;20208;-88
2022/06/21 09:10:01;;;;;;;2.05;1.65;;;;;;;;;;5013467;28;20229;-86
2022/06/21 09:12:34;;;;;;;1.63;1.52;;;;;;;;;;5013323;28;20285;-89
2022/06/21 09:15:22;;;;;;;1.60;1.50;;;;;;;;;;5014201;28;20214;-89
2022/06/21 09:17:55;;;;;;;1.60;1.50;;;;;;;;;;5013704;28;20226;-89
2022/06/21 09:20:38;;;;;;;1.95;1.73;;;;;;;;;;5007611;28;20258;-89
2022/06/21 09:23:13;;;;;;;3.42;1.63;;;;;;;;;;5009567;28;20214;-88
2022/06/21 09:25:50;;;;;;;2.10;1.70;;;;;;;;;;5015623;28;20202;-87
2022/06/21 09:28:34;;;;;;;2.38;1.77;;;;;;;;;;5017515;28;20209;-89
2022/06/21 09:31:20;;;;;;;2.20;2.00;;;;;;;;;;5017996;28;20235;-88
2022/06/21 09:33:59;;;;;;;3.00;2.10;;;;;;;;;;5016950;28;20228;-86
2022/06/21 09:36:34;;;;;;;2.65;2.00;;;;;;;;;;5016098;28;20215;-87
2022/06/21 09:42:00;;;;;;;2.30;1.90;;;;;;;;;;5014477;28;20248;-88
2022/06/21 09:44:45;;;;;;;2.67;1.80;;;;;;;;;;5010943;28;20298;-89
2022/06/21 09:47:48;;;;;;;;;;;;;;;;;;;;;
2022/06/21 09:50:26;;;;;;;1.88;1.77;;;;;;;;;;5015313;28;20218;-89
2022/06/21 09:53:03;;;;;;;2.42;1.90;;;;;;;;;;5015551;28;20661;-87
2022/06/21 09:55:37;;;;;;;1.58;1.42;;;;;;;;;;5018197;28;20222;-87
2022/06/21 09:58:19;;;;;;;1.77;1.67;;;;;;;;;;5017078;28;20257;-87
2022/06/21 10:01:07;;;;;;;2.03;1.77;;;;;;;;;;5011648;28;20241;-88
2022/06/21 10:04:08;;;;;;;2.42;2.03;;;;;;;;;;5017690;28;20206;-86
2022/06/21 10:06:44;;;;;;;3.92;2.75;;;;;;;;;;5018734;28;20217;-88
2022/06/21 10:12:12;;;;;;;2.42;2.03;;;;;;;;;;5015099;28;20221;-88
2022/06/21 10:14:50;;;;;;;2.67;2.00;;;;;;;;;;5017441;28;20206;-87
2022/06/21 10:17:30;;;;;;;4.95;2.53;;;;;;;;;;5016287;28;20285;-87
2022/06/21 10:20:24;;;;;;;6.78;4.07;;;;;;;;;;5018664;28;20237;-88
2022/06/21 10:23:03;;;;;;;5.82;3.65;;;;;;;;;;5015311;28;20214;-88
2022/06/21 10:25:53;;;;;;;5.32;3.13;;;;;;;;;;5017195;28;20211;-87
2022/06/21 10:28:41;;;;;;;5.07;3.17;;;;;;;;;;5014274;28;20207;-86
2022/06/21 10:37:19;;;;;;;7.47;2.95;;;;;;;;;;5023240;28;20204;-88
2022/06/21 10:45:08;;;;;;;5.25;3.15;;;;;;;;;;4974925;28;20215;-87
2022/06/21 10:47:47;;;;;;;6.65;4.13;;;;;;;;;;4977624;28;20208;-87
2022/06/21 10:50:21;;;;;;;5.63;5.15;;;;;;;;;;4976727;28;20219;-87
2022/06/21 10:53:04;;;;;;;6.75;6.03;;;;;;;;;;4976022;28;20218;-88
2022/06/21 10:58:52;;;;;;;4.53;3.45;;;;;;;;;;4925378;28;20206;-85
2022/06/21 11:01:29;;;;;;;3.00;2.80;;;;;;;;;;4974375;28;20674;-88
2022/06/21 11:04:19;;;;;;;3.53;2.65;;;;;;;;;;4975717;28;20199;-89
2022/06/21 11:06:53;;;;;;;12.75;7.10;;;;;;;;;;4975896;28;20200;-84
2022/06/21 11:09:29;;;;;;;10.65;5.25;;;;;;;;;;4975642;28;20230;-85
2022/06/21 11:15:05;;;;;;;4.68;3.40;;;;;;;;;;4968887;28;20191;-84
2022/06/21 11:20:33;;;;;;;4.97;2.83;;;;;;;;;;4974216;28;20232;-86
2022/06/21 11:23:26;;;;;;;4.38;2.95;;;;;;;;;;4972118;28;20208;-86
2022/06/21 11:26:05;;;;;;;4.03;2.70;;;;;;;;;;4963336;28;20208;-86
2022/06/21 11:28:51;;;;;;;2.95;2.65;;;;;;;;;;4971885;28;20208;-86
2022/06/21 11:31:24;;;;;;;3.13;2.63;;;;;;;;;;4971887;28;20243;-86
2022/06/21 11:34:15;;;;;;;;;;;;;;;;;;;;;
2022/06/21 11:36:48;;;;;;;2.85;2.65;;;;;;;;;;4976971;28;20211;-85
2022/06/21 11:39:24;;;;;;;3.00;2.70;;;;;;;;;;4975681;28;20290;-85
2022/06/21 11:42:08;;;;;;;3.08;2.75;;;;;;;;;;4975404;28;20270;-85
2022/06/21 11:44:53;;;;;;;24.80;13.55;;;;;;;;;;4970804;28;20208;-86
2022/06/21 11:47:26;;;;;;;37.58;19.77;;;;;;;;;;4925412;29;20206;-86
2022/06/21 11:50:14;;;;;;;31.00;17.35;;;;;;;;;;4971373;28;20247;-86
2022/06/21 11:53:02;;;;;;;25.17;13.20;;;;;;;;;;4968792;28;20207;-86
2022/06/21 11:55:38;;;;;;;16.95;9.35;;;;;;;;;;4977694;28;20211;-85
2022/06/21 11:58:17;;;;;;;14.90;8.73;;;;;;;;;;4979502;28;20286;-86
2022/06/21 12:00:54;;;;;;;12.18;7.82;;;;;;;;;;4976912;28;20306;-85
2022/06/21 12:03:38;;;;;;;10.55;7.03;;;;;;;;;;4972604;28;20232;-85
2022/06/21 12:06:13;;;;;;;9.60;6.00;;;;;;;;;;4965057;28;20200;-84
2022/06/21 12:08:44;;;;;;;9.27;5.80;;;;;;;;;;4976016;28;20222;-83
2022/06/21 12:11:42;;;;;;;8.07;5.18;;;;;;;;;;4977145;28;20223;-85
2022/06/21 12:14:20;;;;;;;8.02;5.15;;;;;;;;;;4960114;28;20204;-84
2022/06/21 12:17:10;;;;;;;6.55;4.90;;;;;;;;;;4978578;28;20214;-86
2022/06/21 12:19:41;;;;;;;9.10;4.80;;;;;;;;;;4975916;28;20215;-85
2022/06/21 12:22:21;;;;;;;5.80;4.32;;;;;;;;;;4981620;28;20235;-83
2022/06/21 12:24:52;;;;;;;7.40;4.35;;;;;;;;;;4977416;28;20226;-84
2022/06/21 12:27:22;;;;;;;5.13;4.25;;;;;;;;;;4978370;28;20286;-84
2022/06/21 12:30:11;;;;;;;4.65;4.07;;;;;;;;;;4979215;28;20785;-86
2022/06/21 12:32:40;;;;;;;6.70;4.30;;;;;;;;;;4977829;28;20211;-85
2022/06/21 12:35:16;;;;;;;4.75;4.22;;;;;;;;;;5015087;23;20715;-85
2022/06/21 12:37:44;;;;;;;6.60;4.15;;;;;;;;;;5008106;28;20270;-85
2022/06/21 12:40:20;;;;;;;5.60;3.92;;;;;;;;;;5013780;28;20211;-85
2022/06/21 12:42:56;;;;;;;5.07;3.75;;;;;;;;;;5017143;28;20202;-85
2022/06/21 12:45:31;;;;;;;5.78;3.95;;;;;;;;;;5011495;28;20221;-85
2022/06/21 12:48:06;;;;;;;5.35;3.70;;;;;;;;;;5027373;28;20220;-86
2022/06/21 12:50:52;;;;;;;3.88;3.58;;;;;;;;;;5024720;28;20209;-86
2022/06/21 12:53:30;;;;;;;4.25;3.63;;;;;;;;;;5000053;28;20206;-86
2022/06/21 12:56:00;;;;;;;4.15;3.65;;;;;;;;;;4995804;28;20276;-85
2022/06/21 12:58:37;;;;;;;3.50;3.20;;;;;;;;;;5016682;28;20222;-85
2022/06/21 13:01:07;;;;;;;3.67;3.22;;;;;;;;;;5014484;28;20309;-85
2022/06/21 13:03:43;;;;;;;4.60;3.70;;;;;;;;;;5025796;28;20209;-86
2022/06/21 13:06:31;;;;;;;4.57;3.50;;;;;;;;;;5037302;28;20275;-86
2022/06/21 13:09:05;;;;;;;3.58;3.28;;;;;;;;;;5024375;28;20275;-86
2022/06/21 13:11:41;;;;;;;3.55;3.25;;;;;;;;;;5021849;28;20226;-85
2022/06/21 13:14:20;;;;;;;3.22;3.00;;;;;;;;;;5019156;28;20247;-86
2022/06/21 13:16:50;;;;;;;4.32;3.58;;;;;;;;;;5032812;28;20210;-86
2022/06/21 13:19:41;;;;;;;4.03;3.70;;;;;;;;;;5017855;28;20210;-86
2022/06/21 13:22:29;;;;;;;3.78;3.22;;;;;;;;;;5017268;28;20213;-85
2022/06/21 13:25:02;;;;;;;3.75;3.30;;;;;;;;;;5019445;28;20778;-84
2022/06/21 13:27:36;;;;;;;5.63;3.60;;;;;;;;;;5026749;28;20222;-83
2022/06/21 13:30:30;;;;;;;5.90;3.80;;;;;;;;;;5023030;28;20199;-83
2022/06/21 13:33:06;;;;;;;4.97;3.97;;;;;;;;;;5012372;28;20206;-84
2022/06/21 13:35:47;;;;;;;3.92;3.50;;;;;;;;;;5018947;28;20336;-85
2022/06/21 13:38:18;;;;;;;5.47;3.67;;;;;;;;;;5020550;28;20220;-85
2022/06/21 13:40:48;;;;;;;4.15;3.40;;;;;;;;;;5021695;28;20228;-85
2022/06/21 13:43:18;;;;;;;4.22;3.70;;;;;;;;;;5029812;28;20252;-85
2022/06/21 13:45:51;;;;;;;4.10;3.80;;;;;;;;;;5017915;28;20314;-85
2022/06/21 13:48:26;;;;;;;4.57;3.47;;;;;;;;;;5025757;28;20256;-85
2022/06/21 13:50:55;;;;;;;4.47;3.70;;;;;;;;;;4997136;28;20206;-85
2022/06/21 13:53:26;;;;;;;3.95;3.40;;;;;;;;;;5028169;28;20260;-85
2022/06/21 13:55:55;;;;;;;4.55;3.85;;;;;;;;;;4997087;28;20215;-85
2022/06/21 13:58:32;;;;;;;6.45;4.25;;;;;;;;;;5026796;28;20252;-85
2022/06/21 14:01:05;;;;;;;3.70;3.40;;;;;;;;;;5024830;28;20234;-86
2022/06/21 14:03:42;;;;;;;3.85;3.47;;;;;;;;;;5022914;28;20301;-85
2022/06/21 14:06:13;;;;;;;4.25;3.40;;;;;;;;;;5015878;28;20233;-84
2022/06/21 14:08:49;;;;;;;4.22;3.60;;;;;;;;;;5029288;28;20212;-86
2022/06/21 14:11:21;;;;;;;3.88;3.55;;;;;;;;;;5031931;28;20202;-85
2022/06/21 14:13:51;;;;;;;5.65;3.85;;;;;;;;;;4999192;28;20230;-86
2022/06/21 14:16:21;;;;;;;4.45;4.05;;;;;;;;;;5016342;28;20234;-86
2022/06/21 14:18:54;;;;;;;3.47;3.25;;;;;;;;;;5024604;28;20252;-85
2022/06/21 14:21:24;;;;;;;4.35;3.80;;;;;;;;;;5030935;28;20273;-85
2022/06/21 14:23:54;;;;;;;4.18;3.80;;;;;;;;;;5013810;28;20715;-86
2022/06/21 14:26:24;;;;;;;4.95;3.88;;;;;;;;;;5022779;28;20210;-85
2022/06/21 14:28:53;;;;;;;4.07;3.70;;;;;;;;;;5016332;28;20289;-85
2022/06/21 14:31:24;;;;;;;3.92;3.58;;;;;;;;;;5010938;28;20296;-85
2022/06/21 14:33:55;;;;;;;4.30;3.70;;;;;;;;;;5014589;28;20722;-85
2022/06/21 14:36:24;;;;;;;4.18;3.88;;;;;;;;;;5016254;28;20202;-85
2022/06/21 14:38:56;;;;;;;4.22;3.80;;;;;;;;;;5024768;28;20288;-87
2022/06/21 14:41:31;;;;;;;4.28;3.95;;;;;;;;;;5015829;28;20302;-86
2022/06/21 14:44:00;;;;;;;4.72;4.13;;;;;;;;;;5027413;28;20233;-86
2022/06/21 14:46:35;;;;;;;4.18;3.78;;;;;;;;;;5018082;28;20210;-85
2022/06/21 14:49:16;;;;;;;4.50;3.90;;;;;;;;;;5016034;28;20225;-86
2022/06/21 14:51:47;;;;;;;4.00;3.60;;;;;;;;;;5017127;28;20659;-85
2022/06/21 14:54:29;;;;;;;4.47;4.10;;;;;;;;;;5027152;28;20227;-85
2022/06/21 14:57:07;;;;;;;4.15;3.85;;;;;;;;;;5015592;28;20202;-85
2022/06/21 14:59:42;;;;;;;4.57;4.07;;;;;;;;;;5020098;28;20209;-85
2022/06/21 15:02:18;;;;;;;4.82;4.00;;;;;;;;;;5021018;28;20312;-84
2022/06/21 15:04:51;;;;;;;4.53;4.07;;;;;;;;;;5008602;28;20218;-84
2022/06/21 15:07:26;;;;;;;4.32;3.95;;;;;;;;;;5017250;28;20233;-85
2022/06/21 15:09:59;;;;;;;4.47;4.07;;;;;;;;;;5015981;28;20251;-85
2022/06/21 15:12:29;;;;;;;4.43;4.03;;;;;;;;;;5017819;28;20653;-86
2022/06/21 15:14:58;;;;;;;4.50;4.20;;;;;;;;;;5035727;28;20230;-86
2022/06/21 15:17:32;;;;;;;4.03;3.72;;;;;;;;;;5024656;28;20206;-86
2022/06/21 15:20:04;;;;;;;4.03;3.72;;;;;;;;;;5018348;28;20218;-85
2022/06/21 15:22:39;;;;;;;4.20;3.80;;;;;;;;;;5017705;28;20221;-85
2022/06/21 15:25:16;;;;;;;4.60;4.18;;;;;;;;;;5029134;28;20233;-85
2022/06/21 15:27:50;;;;;;;4.70;4.30;;;;;;;;;;5007229;28;20194;-88
2022/06/21 15:30:19;;;;;;;4.65;4.32;;;;;;;;;;5007509;28;20203;-86
2022/06/21 15:32:52;;;;;;;4.30;3.90;;;;;;;;;;5009063;28;20225;-84
2022/06/21 15:35:32;;;;;;;4.53;4.13;;;;;;;;;;5010613;28;20226;-84
2022/06/21 15:38:03;;;;;;;4.60;4.20;;;;;;;;;;5001535;28;20294;-85
2022/06/21 15:40:34;;;;;;;4.60;4.20;;;;;;;;;;5009728;28;20242;-85
2022/06/21 15:43:03;;;;;;;3.97;3.67;;;;;;;;;;5004817;28;20214;-86
2022/06/21 15:45:32;;;;;;;4.93;4.43;;;;;;;;;;5005229;28;20231;-85
2022/06/21 15:51:00;;;;;;;4.55;4.18;;;;;;;;;;4999656;28;20202;-86
2022/06/21 15:53:38;;;;;;;4.47;4.18;;;;;;;;;;5005255;28;20212;-85
2022/06/21 15:56:12;;;;;;;4.90;4.50;;;;;;;;;;5006432;28;20210;-85
2022/06/21 15:58:44;;;;;;;4.88;4.47;;;;;;;;;;5010075;28;20342;-86
2022/06/21 16:01:14;;;;;;;4.55;4.15;;;;;;;;;;5005385;28;20218;-86
2022/06/21 16:03:45;;;;;;;4.35;4.03;;;;;;;;;;5008442;28;20233;-86
2022/06/21 16:06:17;;;;;;;4.53;4.10;;;;;;;;;;5007503;28;20232;-86
2022/06/21 16:08:53;;;;;;;4.93;4.30;;;;;;;;;;5004264;28;20235;-86
2022/06/21 16:11:22;;;;;;;5.15;4.30;;;;;;;;;;5008072;28;20198;-86
2022/06/21 16:13:50;;;;;;;4.95;4.55;;;;;;;;;;5006423;28;20310;-86
2022/06/21 16:16:21;;;;;;;4.75;4.32;;;;;;;;;;5011731;28;20214;-86
2022/06/21 16:18:52;;;;;;;4.50;4.10;;;;;;;;;;5011424;28;20241;-86
2022/06/21 16:21:23;;;;;;;4.97;4.05;;;;;;;;;;5025302;28;20225;-85
2022/06/21 16:23:56;;;;;;;4.20;3.90;;;;;;;;;;5010535;28;20267;-85
2022/06/21 16:26:27;;;;;;;4.63;4.15;;;;;;;;;;5001889;28;20234;-85
2022/06/21 16:29:00;;;;;;;4.85;4.45;;;;;;;;;;5008516;28;20205;-85
2022/06/21 16:34:20;;;;;;;4.38;4.07;;;;;;;;;;5007021;28;20229;-85
2022/06/21 16:36:51;;;;;;;4.72;4.32;;;;;;;;;;5004220;28;20218;-86